Time;durP1;ratioP1;P1;durP2;ratioP2;P2;SDS_P1;SDS_P2;PMS_P1;PMS_P2;Temp;Humidity;BMP_temperature;BMP_pressure;BME280_temperature;BME280_humidity;BME280_pressure;Samples;Min_cycle;Max_cycle;Signal;HPM_P1;HPM_P2
2023/10/07 00:01:57;;;;;;;12.87;5.37;;;15.60;99.90;;;;;;7310526;19;20235;-85
2023/10/07 00:04:38;;;;;;;17.30;5.57;;;15.60;99.90;;;;;;7292368;19;20541;-85
2023/10/07 00:07:17;;;;;;;13.53;5.50;;;15.60;99.90;;;;;;7268621;19;20993;-86
2023/10/07 00:09:50;;;;;;;13.37;5.23;;;15.70;99.90;;;;;;7304063;19;20665;-85
2023/10/07 00:12:21;;;;;;;15.73;5.13;;;15.70;99.90;;;;;;7299192;19;20551;-86
2023/10/07 00:14:49;;;;;;;17.93;5.40;;;15.70;99.90;;;;;;7290376;19;20191;-86
2023/10/07 00:17:18;;;;;;;17.07;5.73;;;15.70;99.90;;;;;;7309271;19;20254;-85
2023/10/07 00:19:51;;;;;;;13.50;5.17;;;15.60;99.90;;;;;;7292860;19;20208;-84
2023/10/07 00:22:26;;;;;;;13.70;5.10;;;15.60;99.90;;;;;;7292909;19;20188;-85
2023/10/07 00:24:52;;;;;;;17.40;4.90;;;15.60;99.90;;;;;;7292210;19;20193;-85
2023/10/07 00:27:42;;;;;;;14.90;5.30;;;15.50;99.90;;;;;;7289991;19;20200;-85
2023/10/07 00:30:15;;;;;;;13.07;5.27;;;15.50;99.90;;;;;;7291356;19;20655;-85
2023/10/07 00:32:45;;;;;;;13.73;5.13;;;15.50;99.90;;;;;;7292334;19;20242;-85
2023/10/07 00:35:16;;;;;;;15.83;5.27;;;15.50;99.90;;;;;;7291305;19;20645;-84
2023/10/07 00:37:54;;;;;;;13.90;5.80;;;15.50;99.90;;;;;;7291891;19;20202;-85
2023/10/07 00:40:41;;;;;;;13.37;5.27;;;15.50;99.90;;;;;;7188560;19;2004555;-85
2023/10/07 00:43:11;;;;;;;13.67;5.57;;;15.50;99.90;;;;;;7290985;19;20257;-85
2023/10/07 00:45:44;;;;;;;15.13;5.50;;;15.50;99.90;;;;;;7314660;19;20596;-85
2023/10/07 00:48:16;;;;;;;15.07;5.30;;;15.50;99.90;;;;;;7293538;19;20191;-86
2023/10/07 00:50:45;;;;;;;19.43;5.70;;;15.40;99.90;;;;;;7292150;19;20197;-87
2023/10/07 00:53:15;;;;;;;16.13;5.77;;;15.50;99.90;;;;;;7290404;19;20217;-86
2023/10/07 00:55:47;;;;;;;15.27;5.73;;;15.60;99.90;;;;;;7293053;19;20287;-87
2023/10/07 00:58:20;;;;;;;15.20;5.63;;;15.60;99.90;;;;;;7282751;19;20673;-85
2023/10/07 01:00:49;;;;;;;18.67;6.30;;;15.50;99.90;;;;;;7293817;19;20190;-85
2023/10/07 01:08:38;;;;;;;22.83;6.30;;;15.60;99.90;;;;;;7291306;19;20257;-85
2023/10/07 01:11:10;;;;;;;13.43;5.93;;;15.50;99.90;;;;;;7291380;19;20199;-85
2023/10/07 01:13:48;;;;;;;14.83;6.57;;;15.50;99.90;;;;;;7288987;19;20196;-85
2023/10/07 01:19:19;;;;;;;13.30;5.40;;;15.50;99.90;;;;;;7188829;19;2004699;-85
2023/10/07 01:21:55;;;;;;;16.13;5.97;;;15.40;99.90;;;;;;7281205;19;20285;-85
2023/10/07 01:24:49;;;;;;;17.17;5.83;;;15.40;99.90;;;;;;7290712;19;20199;-86
2023/10/07 01:33:35;;;;;;;16.60;6.30;;;15.60;99.90;;;;;;7189018;19;2004355;-86
2023/10/07 01:36:24;;;;;;;18.87;6.53;;;15.40;99.90;;;;;;7231104;19;2004386;-85
2023/10/07 01:39:01;;;;;;;16.27;6.43;;;15.50;99.90;;;;;;7312482;19;20220;-86
2023/10/07 01:41:38;;;;;;;14.60;6.43;;;15.50;99.90;;;;;;7288517;19;20194;-86
2023/10/07 01:44:16;;;;;;;16.10;6.43;;;15.40;99.90;;;;;;7289563;19;20195;-85
2023/10/07 01:46:55;;;;;;;16.57;6.90;;;15.40;99.90;;;;;;7268626;19;20204;-86
2023/10/07 01:49:30;;;;;;;16.60;6.60;;;15.50;99.90;;;;;;7290348;19;20229;-85
2023/10/07 01:51:56;;;;;;;14.13;6.40;;;15.60;99.90;;;;;;7288307;19;20263;-85
2023/10/07 01:54:28;;;;;;;18.33;6.87;;;15.50;99.90;;;;;;7289898;19;20199;-86
2023/10/07 01:57:05;;;;;;;13.47;6.20;;;15.50;99.90;;;;;;7290473;19;20195;-85
2023/10/07 01:59:31;;;;;;;17.37;6.50;;;15.60;99.90;;;;;;7290658;19;20263;-86
2023/10/07 02:02:06;;;;;;;15.50;6.37;;;15.60;99.90;;;;;;7287153;19;20233;-85
2023/10/07 02:04:36;;;;;;;16.30;6.93;;;15.70;99.90;;;;;;7288336;19;20188;-86
2023/10/07 02:07:08;;;;;;;15.10;6.20;;;15.70;99.90;;;;;;7309778;19;20199;-86
2023/10/07 02:09:42;;;;;;;16.47;6.80;;;15.70;99.90;;;;;;7288801;19;20638;-86
2023/10/07 02:12:11;;;;;;;14.57;5.93;;;15.70;99.90;;;;;;7289007;19;20265;-86
2023/10/07 02:14:38;;;;;;;14.57;6.20;;;15.70;99.90;;;;;;7311877;19;20188;-86
2023/10/07 02:17:19;;;;;;;17.87;6.47;;;15.80;99.90;;;;;;7290270;19;20823;-85
2023/10/07 02:19:57;;;;;;;13.00;6.50;;;15.90;99.90;;;;;;7273624;19;20199;-85
2023/10/07 02:22:30;;;;;;;15.40;5.60;;;15.80;99.90;;;;;;7313102;19;20199;-86
2023/10/07 02:25:04;;;;;;;14.57;6.00;;;15.80;99.90;;;;;;7287187;19;20267;-86
2023/10/07 02:27:42;;;;;;;16.83;6.27;;;15.80;99.90;;;;;;7309895;19;20686;-85
2023/10/07 02:30:19;;;;;;;13.47;6.63;;;15.80;99.90;;;;;;7289737;19;20187;-85
2023/10/07 02:32:49;;;;;;;16.73;6.33;;;15.80;99.90;;;;;;7287330;19;20202;-85
2023/10/07 02:35:19;;;;;;;18.40;6.63;;;15.70;99.90;;;;;;7309857;19;20565;-85
2023/10/07 02:37:49;;;;;;;15.80;6.43;;;15.70;99.90;;;;;;7281523;19;20219;-85
2023/10/07 02:40:22;;;;;;;18.40;6.67;;;15.70;99.90;;;;;;7304518;19;20194;-85
2023/10/07 02:42:51;;;;;;;19.47;7.07;;;15.70;99.90;;;;;;7288185;19;20201;-85
2023/10/07 02:48:00;;;;;;;17.60;7.00;;;15.80;99.90;;;;;;7286205;19;20195;-85
2023/10/07 02:50:31;;;;;;;15.20;6.13;;;15.80;99.90;;;;;;7278425;19;20191;-85
2023/10/07 02:53:01;;;;;;;16.37;6.70;;;15.80;99.90;;;;;;7285827;19;20665;-85
2023/10/07 02:55:45;;;;;;;16.93;6.87;;;15.80;99.90;;;;;;7285457;19;20270;-85
2023/10/07 02:58:24;;;;;;;19.83;7.30;;;15.70;99.90;;;;;;7287639;19;20190;-86
2023/10/07 03:01:10;;;;;;;18.33;7.03;;;15.80;99.90;;;;;;7207266;19;2004463;-86
2023/10/07 03:03:48;;;;;;;17.83;6.57;;;15.80;99.90;;;;;;7284380;19;20199;-86
2023/10/07 03:06:25;;;;;;;18.50;7.00;;;15.80;99.90;;;;;;7287492;19;20193;-86
2023/10/07 03:09:07;;;;;;;18.40;6.00;;;15.70;99.90;;;;;;7205467;19;2004445;-86
2023/10/07 03:11:40;;;;;;;14.93;6.57;;;15.80;99.90;;;;;;7287269;19;20779;-85
2023/10/07 03:14:29;;;;;;;15.60;6.50;;;15.80;99.90;;;;;;7288264;19;20201;-86
2023/10/07 03:17:16;;;;;;;18.27;7.50;;;15.70;99.90;;;;;;7186235;19;2004356;-86
2023/10/07 03:23:10;;;;;;;15.07;7.00;;;15.70;99.90;;;;;;7179307;19;2004447;-85
2023/10/07 03:25:22;;;;;;;20.20;7.00;;;15.70;99.90;;;;;;7185310;19;2004429;-85
2023/10/07 03:27:55;;;;;;;14.50;7.13;;;15.80;99.90;;;;;;7288275;19;20191;-85
2023/10/07 03:30:27;;;;;;;16.57;6.90;;;15.80;99.90;;;;;;7287873;19;20555;-85
2023/10/07 03:32:57;;;;;;;14.53;6.97;;;15.90;99.90;;;;;;7287484;19;20205;-84
2023/10/07 03:35:35;;;;;;;17.50;7.30;;;16.00;99.90;;;;;;7288922;19;20198;-86
2023/10/07 03:38:08;;;;;;;16.93;6.90;;;16.00;99.90;;;;;;7287614;19;20234;-86
2023/10/07 03:40:47;;;;;;;15.17;6.83;;;16.20;99.90;;;;;;7288770;19;20205;-87
2023/10/07 03:43:16;;;;;;;16.03;6.57;;;16.20;99.90;;;;;;7289411;19;20212;-86
2023/10/07 03:45:45;;;;;;;18.97;7.27;;;16.20;99.90;;;;;;7287643;19;20188;-86
2023/10/07 03:51:16;;;;;;;16.83;6.70;;;16.10;99.90;;;;;;7186046;19;2004402;-86
2023/10/07 03:53:45;;;;;;;18.47;6.30;;;16.10;99.90;;;;;;7288913;19;20542;-86
2023/10/07 03:56:17;;;;;;;19.20;6.67;;;16.20;99.90;;;;;;7287988;19;20192;-86
2023/10/07 03:58:48;;;;;;;16.20;7.00;;;16.20;99.90;;;;;;7288385;19;20184;-86
2023/10/07 04:01:22;;;;;;;13.87;6.57;;;16.20;99.90;;;;;;7268665;19;20188;-87
2023/10/07 04:03:59;;;;;;;18.00;6.73;;;16.20;99.90;;;;;;7285930;19;20203;-85
2023/10/07 04:06:34;;;;;;;14.60;6.23;;;16.30;99.90;;;;;;7288944;19;20196;-88
2023/10/07 04:09:09;;;;;;;18.13;7.00;;;16.30;99.90;;;;;;7286290;19;20195;-87
2023/10/07 04:11:37;;;;;;;16.30;7.13;;;16.30;99.90;;;;;;7287111;19;20205;-88
2023/10/07 04:14:28;;;;;;;16.93;6.80;;;16.40;99.90;;;;;;7289862;19;20256;-89
2023/10/07 04:17:00;;;;;;;13.70;6.17;;;16.40;99.90;;;;;;7285578;19;20204;-85
2023/10/07 04:21:56;;;;;;;16.47;6.57;;;16.40;99.90;;;;;;7286652;19;20192;-86
2023/10/07 04:24:28;;;;;;;13.33;6.20;;;16.40;99.90;;;;;;7285198;19;20205;-86
2023/10/07 04:27:01;;;;;;;13.80;6.27;;;16.40;99.90;;;;;;7284434;19;20200;-86
2023/10/07 04:29:39;;;;;;;13.73;6.60;;;16.40;99.90;;;;;;7283677;19;20217;-87
2023/10/07 04:32:14;;;;;;;15.63;6.43;;;16.40;99.90;;;;;;7305809;19;20183;-87
2023/10/07 04:35:01;;;;;;;17.77;5.97;;;16.40;99.90;;;;;;7289126;19;20197;-86
2023/10/07 04:37:47;;;;;;;16.17;6.10;;;16.40;99.90;;;;;;7188113;19;2004425;-86
2023/10/07 04:45:48;;;;;;;13.53;5.90;;;16.40;99.90;;;;;;7190537;19;2004531;-87
2023/10/07 04:48:26;;;;;;;12.90;5.90;;;16.40;99.90;;;;;;7293996;19;20188;-87
2023/10/07 04:51:03;;;;;;;12.50;5.67;;;16.50;99.90;;;;;;7189763;19;2004454;-86
2023/10/07 04:53:40;;;;;;;15.27;5.67;;;16.50;99.90;;;;;;7289217;19;20205;-86
2023/10/07 04:56:10;;;;;;;15.53;5.80;;;16.50;99.90;;;;;;7291349;19;20273;-86
2023/10/07 04:58:44;;;;;;;16.17;5.83;;;16.50;99.90;;;;;;7290738;19;20201;-86
2023/10/07 05:04:04;;;;;;;16.13;5.90;;;16.40;99.90;;;;;;7188745;19;2004431;-86
2023/10/07 05:06:34;;;;;;;14.77;5.97;;;16.50;99.90;;;;;;7290764;19;20196;-86
2023/10/07 05:09:18;;;;;;;15.27;5.70;;;16.50;99.90;;;;;;7280939;19;20262;-86
2023/10/07 05:11:51;;;;;;;15.47;5.87;;;16.40;99.90;;;;;;7290573;19;20191;-86
2023/10/07 05:14:24;;;;;;;13.93;5.57;;;16.40;99.90;;;;;;7291736;19;20218;-86
2023/10/07 05:16:53;;;;;;;13.57;5.87;;;16.40;99.90;;;;;;7287269;19;20199;-86
2023/10/07 05:19:34;;;;;;;14.60;5.93;;;16.40;99.90;;;;;;7290601;19;20186;-87
2023/10/07 05:22:14;;;;;;;17.57;5.83;;;16.40;99.90;;;;;;7290620;19;20195;-86
2023/10/07 05:24:46;;;;;;;13.97;5.90;;;16.40;99.90;;;;;;7289809;19;20188;-86
2023/10/07 05:27:15;;;;;;;15.07;5.73;;;16.40;99.90;;;;;;7290942;19;20272;-86
2023/10/07 05:29:47;;;;;;;17.30;5.87;;;16.30;99.90;;;;;;7288683;19;20244;-86
2023/10/07 05:32:13;;;;;;;15.20;6.00;;;16.30;99.90;;;;;;7291699;19;20211;-86
2023/10/07 05:34:41;;;;;;;15.23;5.83;;;16.40;99.90;;;;;;7292306;19;20199;-86
2023/10/07 05:37:15;;;;;;;12.90;5.77;;;16.50;99.90;;;;;;7291137;19;20672;-86
2023/10/07 05:39:47;;;;;;;15.13;6.10;;;16.50;99.90;;;;;;7292104;19;20192;-86
2023/10/07 05:42:30;;;;;;;;;;;;;;;;;;;;;
2023/10/07 05:45:16;;;;;;;15.17;5.90;;;16.40;99.90;;;;;;7206415;19;2004403;-86
2023/10/07 05:48:03;;;;;;;15.50;6.37;;;16.40;99.90;;;;;;7290957;19;20557;-86
2023/10/07 05:50:46;;;;;;;14.00;6.03;;;16.40;99.90;;;;;;7186442;19;2004433;-87
2023/10/07 05:53:22;;;;;;;16.63;6.40;;;16.40;99.90;;;;;;7290688;19;20192;-86
2023/10/07 05:55:51;;;;;;;17.70;5.53;;;16.40;99.90;;;;;;7268720;19;20187;-86
2023/10/07 05:58:23;;;;;;;14.20;6.10;;;16.40;99.90;;;;;;7289920;19;20252;-86
2023/10/07 06:01:25;;;;;;;14.63;6.60;;;16.50;99.90;;;;;;7289847;19;20575;-85
2023/10/07 06:04:04;;;;;;;13.80;6.20;;;16.50;99.90;;;;;;7187288;19;2004400;-86
2023/10/07 06:06:42;;;;;;;14.90;6.80;;;16.50;99.90;;;;;;7290459;19;20284;-88
2023/10/07 06:09:16;;;;;;;13.07;6.10;;;16.60;99.90;;;;;;7291188;19;20188;-87
2023/10/07 06:11:48;;;;;;;16.63;6.80;;;16.50;99.90;;;;;;7290222;19;20222;-86
2023/10/07 06:14:23;;;;;;;17.30;6.60;;;16.50;99.90;;;;;;7290577;19;20192;-86
2023/10/07 06:16:55;;;;;;;18.73;6.83;;;16.40;99.90;;;;;;7263874;19;20187;-85
2023/10/07 06:19:26;;;;;;;17.40;6.83;;;16.30;99.90;;;;;;7280295;19;20205;-86
2023/10/07 06:22:12;;;;;;;17.50;6.50;;;16.30;99.90;;;;;;7287571;19;20192;-88
2023/10/07 06:24:40;;;;;;;20.17;7.20;;;16.30;99.90;;;;;;7285296;19;20191;-86
2023/10/07 06:27:21;;;;;;;19.80;6.53;;;16.40;99.90;;;;;;7285083;19;20244;-87
2023/10/07 06:29:58;;;;;;;16.17;6.70;;;16.50;99.90;;;;;;7184456;19;2004435;-87
2023/10/07 06:32:43;;;;;;;18.27;6.63;;;16.50;99.90;;;;;;7284369;19;20223;-87
2023/10/07 06:35:25;;;;;;;16.97;6.90;;;16.50;99.90;;;;;;7289748;19;20196;-86
2023/10/07 06:38:03;;;;;;;14.10;6.47;;;16.70;99.90;;;;;;7185246;19;2004473;-86
2023/10/07 06:43:43;;;;;;;16.03;6.63;;;16.60;99.90;;;;;;7186822;19;2004442;-87
2023/10/07 06:46:20;;;;;;;13.93;6.40;;;16.60;99.90;;;;;;7287097;19;20696;-87
2023/10/07 06:49:19;;;;;;;17.03;6.77;;;16.60;99.90;;;;;;7316815;19;20188;-87
2023/10/07 06:51:58;;;;;;;15.57;7.00;;;16.70;99.90;;;;;;7288617;19;20192;-88
2023/10/07 06:54:32;;;;;;;18.83;7.00;;;16.70;99.90;;;;;;7186514;19;2004306;-87
2023/10/07 06:57:08;;;;;;;18.60;7.00;;;16.70;99.90;;;;;;7287900;19;20215;-87
2023/10/07 06:59:45;;;;;;;13.43;6.33;;;16.70;99.90;;;;;;7287736;19;20315;-85
2023/10/07 07:02:35;;;;;;;13.90;6.80;;;16.70;99.90;;;;;;7284987;19;20232;-86
2023/10/07 07:05:11;;;;;;;19.37;7.20;;;16.80;99.90;;;;;;7184172;19;2004595;-86
2023/10/07 07:07:43;;;;;;;14.33;6.10;;;16.80;99.90;;;;;;7287750;19;20540;-86
2023/10/07 07:10:27;;;;;;;15.13;6.67;;;16.90;99.90;;;;;;7287447;19;20610;-87
2023/10/07 07:13:05;;;;;;;17.90;6.90;;;17.00;99.90;;;;;;7185348;19;2004388;-87
2023/10/07 07:15:37;;;;;;;15.03;6.40;;;17.10;99.90;;;;;;7286289;19;20190;-87
2023/10/07 07:18:25;;;;;;;15.07;6.70;;;17.10;99.90;;;;;;7287348;19;20210;-87
2023/10/07 07:24:25;;;;;;;;;;;;;;;;;;;;;
2023/10/07 07:26:59;;;;;;;18.07;6.53;;;17.30;99.90;;;;;;7083389;19;2004444;-88
2023/10/07 07:29:30;;;;;;;15.93;6.47;;;17.50;99.90;;;;;;7282320;19;20217;-88
2023/10/07 07:32:17;;;;;;;13.30;6.53;;;17.60;99.90;;;;;;7278218;19;20192;-86
2023/10/07 07:34:54;;;;;;;15.90;6.37;;;17.90;99.90;;;;;;7288888;19;20184;-86
2023/10/07 07:37:22;;;;;;;16.20;6.50;;;18.20;99.90;;;;;;7286990;19;20189;-86
2023/10/07 07:39:54;;;;;;;14.97;6.70;;;18.40;99.90;;;;;;7309047;19;20649;-86
2023/10/07 07:42:27;;;;;;;18.33;6.53;;;18.40;99.90;;;;;;7287884;19;20525;-86
2023/10/07 07:44:57;;;;;;;15.93;6.30;;;18.60;99.90;;;;;;7307442;19;20756;-86
2023/10/07 07:47:31;;;;;;;14.77;6.33;;;18.50;99.90;;;;;;7278341;19;20196;-86
2023/10/07 07:50:02;;;;;;;15.03;6.50;;;18.40;99.90;;;;;;7286767;19;20200;-86
2023/10/07 07:52:33;;;;;;;14.70;6.73;;;18.40;99.90;;;;;;7286813;19;20299;-87
2023/10/07 07:54:59;;;;;;;17.57;6.33;;;18.30;99.90;;;;;;7285768;19;20200;-85
2023/10/07 07:57:27;;;;;;;18.90;7.50;;;18.30;99.90;;;;;;7287107;19;20210;-87
2023/10/07 07:59:54;;;;;;;16.00;6.80;;;18.30;99.90;;;;;;7286846;19;20527;-86
2023/10/07 08:02:26;;;;;;;19.30;6.93;;;18.10;99.90;;;;;;7284277;19;20243;-86
2023/10/07 08:05:02;;;;;;;16.43;7.27;;;18.10;99.90;;;;;;7285931;19;20307;-86
2023/10/07 08:07:29;;;;;;;17.80;7.20;;;18.20;99.90;;;;;;7284792;19;20219;-86
2023/10/07 08:10:03;;;;;;;20.17;7.50;;;18.20;99.90;;;;;;7292315;19;20204;-85
2023/10/07 08:12:36;;;;;;;20.63;7.70;;;18.40;99.90;;;;;;7292718;19;20534;-86
2023/10/07 08:15:38;;;;;;;19.37;7.13;;;18.50;99.90;;;;;;7293837;19;20199;-86
2023/10/07 08:17:52;;;;;;;20.13;8.47;;;18.70;99.90;;;;;;7190284;19;2004548;-87
2023/10/07 08:20:33;;;;;;;15.60;7.10;;;18.90;99.90;;;;;;7296583;19;20284;-86
2023/10/07 08:23:07;;;;;;;20.80;7.80;;;19.20;99.90;;;;;;7294166;19;20262;-86
2023/10/07 08:25:45;;;;;;;15.37;6.80;;;19.30;99.90;;;;;;7294890;19;20223;-88
2023/10/07 08:28:38;;;;;;;16.57;7.37;;;19.50;99.90;;;;;;7273533;19;20550;-86
2023/10/07 08:31:13;;;;;;;20.57;7.50;;;19.50;99.90;;;;;;7293601;19;20184;-87
2023/10/07 08:33:52;;;;;;;15.30;7.00;;;19.50;99.90;;;;;;7293577;19;20213;-86
2023/10/07 08:36:19;;;;;;;16.67;7.40;;;19.30;99.90;;;;;;7268724;19;20219;-85
2023/10/07 08:38:50;;;;;;;15.43;7.07;;;19.40;99.90;;;;;;7297310;19;20196;-85
2023/10/07 08:41:16;;;;;;;18.67;8.30;;;19.30;99.90;;;;;;7315523;19;20181;-86
2023/10/07 08:44:03;;;;;;;14.70;7.00;;;19.30;99.90;;;;;;7293847;19;20211;-86
2023/10/07 08:46:32;;;;;;;21.63;7.43;;;19.30;99.90;;;;;;7190430;19;2004477;-86
2023/10/07 08:49:05;;;;;;;16.73;7.23;;;19.50;99.90;;;;;;7293503;19;20192;-87
2023/10/07 08:51:41;;;;;;;17.77;7.07;;;19.60;99.90;;;;;;7293416;19;20200;-88
2023/10/07 08:54:26;;;;;;;16.53;6.93;;;19.70;99.90;;;;;;7294173;19;20192;-86
2023/10/07 08:57:03;;;;;;;14.60;6.50;;;19.70;99.90;;;;;;7191914;19;2004419;-87
2023/10/07 08:59:40;;;;;;;20.00;7.50;;;19.80;99.90;;;;;;7294705;19;20202;-85
2023/10/07 09:02:17;;;;;;;15.80;7.50;;;19.90;99.90;;;;;;7293119;19;20208;-86
2023/10/07 09:04:43;;;;;;;15.93;6.33;;;19.90;99.90;;;;;;7293837;19;20185;-85
2023/10/07 09:07:11;;;;;;;17.30;6.70;;;20.00;99.90;;;;;;7293366;19;20200;-87
2023/10/07 09:09:43;;;;;;;16.53;6.87;;;20.00;99.90;;;;;;7294121;19;20268;-85
2023/10/07 09:12:14;;;;;;;17.53;6.60;;;20.00;99.90;;;;;;7293332;19;20187;-86
2023/10/07 09:14:57;;;;;;;16.17;6.60;;;20.00;99.90;;;;;;7292545;19;20215;-87
2023/10/07 09:17:26;;;;;;;17.10;6.70;;;20.10;99.90;;;;;;7189980;19;2004533;-86
2023/10/07 09:20:29;;;;;;;20.57;6.97;;;20.20;99.90;;;;;;7288705;19;20184;-86
2023/10/07 09:23:22;;;;;;;17.43;6.80;;;20.20;99.90;;;;;;7189841;19;2004410;-87
2023/10/07 09:25:54;;;;;;;19.40;7.23;;;20.30;99.90;;;;;;7273723;19;20204;-88
2023/10/07 09:28:31;;;;;;;18.83;6.83;;;20.30;99.90;;;;;;7294022;19;20196;-85
2023/10/07 09:31:06;;;;;;;17.07;6.80;;;20.40;99.90;;;;;;7293602;19;20198;-87
2023/10/07 09:33:41;;;;;;;14.33;6.40;;;20.50;99.90;;;;;;7291460;19;20195;-87
2023/10/07 09:41:45;;;;;;;12.27;6.43;;;20.70;99.90;;;;;;7295236;19;20537;-87
2023/10/07 09:44:26;;;;;;;16.97;6.60;;;20.90;99.90;;;;;;7293945;19;20191;-88
2023/10/07 09:47:10;;;;;;;15.03;5.73;;;21.30;99.90;;;;;;7189596;19;2004441;-87
2023/10/07 09:49:48;;;;;;;16.47;5.80;;;22.40;99.90;;;;;;7293105;19;20200;-87
2023/10/07 09:52:29;;;;;;;13.10;5.90;;;24.00;99.90;;;;;;7291668;19;20181;-87
2023/10/07 09:55:20;;;;;;;13.77;5.33;;;25.20;99.90;;;;;;7189570;19;2004425;-86
2023/10/07 09:58:24;;;;;;;12.23;5.40;;;26.60;99.90;;;;;;7294756;19;20519;-87
2023/10/07 10:01:45;;;;;;;12.02;5.25;;;27.10;99.90;;;;;;7085797;19;2004561;-89
2023/10/07 10:04:51;;;;;;;15.40;5.90;;;28.20;99.90;;;;;;7187344;19;2004130;-88
2023/10/07 10:07:47;;;;;;;13.02;5.32;;;28.20;99.90;;;;;;7182786;19;2004369;-86
2023/10/07 10:10:30;;;;;;;12.48;5.15;;;28.10;99.90;;;;;;7312795;19;20307;-87
2023/10/07 10:15:59;;;;;;;12.50;5.60;;;29.50;99.90;;;;;;7290661;19;20192;-86
2023/10/07 10:18:36;;;;;;;10.70;4.70;;;29.30;99.90;;;;;;7187435;19;2004335;-89
2023/10/07 10:21:09;;;;;;;11.38;5.18;;;29.60;99.90;;;;;;7289908;19;20192;-87
2023/10/07 10:23:38;;;;;;;9.60;4.38;;;29.70;99.90;;;;;;7289519;19;20185;-86
2023/10/07 10:26:30;;;;;;;;;;;;;;;;;;;;;
2023/10/07 10:29:00;;;;;;;10.95;4.45;;;31.30;99.90;;;;;;7185561;19;2004431;-86
2023/10/07 10:31:40;;;;;;;9.52;4.38;;;30.80;99.90;;;;;;7286874;19;20223;-86
2023/10/07 10:34:08;;;;;;;12.48;4.82;;;31.20;99.90;;;;;;7290047;19;20196;-87
2023/10/07 10:36:41;;;;;;;9.93;4.50;;;31.10;99.90;;;;;;7291354;19;21545;-86
2023/10/07 10:39:33;;;;;;;9.27;4.15;;;31.70;99.90;;;;;;7290841;19;20271;-87
2023/10/07 10:42:15;;;;;;;11.13;4.65;;;31.90;99.90;;;;;;7185435;19;2004442;-88
2023/10/07 10:44:49;;;;;;;11.60;4.47;;;32.20;99.90;;;;;;7355330;19;20180;-88
2023/10/07 10:47:17;;;;;;;10.85;4.55;;;31.60;99.90;;;;;;7401945;19;20157;-88
2023/10/07 10:50:06;;;;;;;10.90;4.40;;;31.60;99.90;;;;;;7380654;19;20514;-86
2023/10/07 10:52:33;;;;;;;11.13;4.45;;;30.90;99.90;;;;;;7209081;19;2004525;-86
2023/10/07 10:55:06;;;;;;;12.45;4.50;;;30.60;99.90;;;;;;7290763;19;20252;-85
2023/10/07 10:57:38;;;;;;;11.70;4.47;;;31.10;99.90;;;;;;7288659;19;20200;-88
2023/10/07 11:00:19;;;;;;;9.70;4.28;;;31.00;99.90;;;;;;7289659;19;20195;-87
2023/10/07 11:02:53;;;;;;;9.18;3.97;;;30.90;99.90;;;;;;7268388;19;20207;-86
2023/10/07 11:05:25;;;;;;;12.85;4.57;;;31.20;99.90;;;;;;7289570;19;20180;-86
2023/10/07 11:07:52;;;;;;;12.25;4.55;;;31.10;99.90;;;;;;7289932;19;20196;-85
2023/10/07 11:10:25;;;;;;;8.80;3.83;;;31.00;99.90;;;;;;7288260;19;20204;-84
2023/10/07 11:12:55;;;;;;;9.30;4.38;;;31.50;99.90;;;;;;7289842;19;20209;-86
2023/10/07 11:15:28;;;;;;;10.73;4.63;;;31.50;99.90;;;;;;7291429;19;20195;-86
2023/10/07 11:18:14;;;;;;;10.55;4.28;;;31.40;99.90;;;;;;7274707;19;20203;-85
2023/10/07 11:20:42;;;;;;;12.70;4.50;;;31.30;99.90;;;;;;7287904;19;20189;-83
2023/10/07 11:23:19;;;;;;;13.00;4.88;;;31.30;99.90;;;;;;7286548;19;20185;-84
2023/10/07 11:25:45;;;;;;;11.93;4.65;;;31.30;99.90;;;;;;7276966;19;20721;-84
2023/10/07 11:28:15;;;;;;;11.15;4.30;;;30.60;99.90;;;;;;7288519;19;20665;-83
2023/10/07 11:30:44;;;;;;;10.10;4.15;;;30.60;99.90;;;;;;7286810;19;20199;-84
2023/10/07 11:33:16;;;;;;;12.65;4.68;;;30.70;99.90;;;;;;7285836;19;20195;-84
2023/10/07 11:35:43;;;;;;;11.63;3.85;;;30.70;99.90;;;;;;7288959;19;20199;-85
2023/10/07 11:38:11;;;;;;;9.35;3.85;;;31.10;99.90;;;;;;7288107;19;20193;-84
2023/10/07 11:40:39;;;;;;;10.95;4.03;;;31.10;99.90;;;;;;7286380;19;20201;-84
2023/10/07 11:43:08;;;;;;;12.23;4.07;;;31.30;99.90;;;;;;7273125;19;20199;-86
2023/10/07 11:45:39;;;;;;;8.88;3.55;;;31.60;99.90;;;;;;7308595;19;20268;-85
2023/10/07 11:48:11;;;;;;;11.30;3.50;;;31.50;99.90;;;;;;7288340;19;20181;-84
2023/10/07 11:50:38;;;;;;;11.07;4.05;;;32.20;99.90;;;;;;7286662;19;20297;-87
2023/10/07 11:53:05;;;;;;;12.18;4.13;;;32.40;99.90;;;;;;7285641;19;20181;-84
2023/10/07 11:55:31;;;;;;;10.10;3.70;;;32.00;99.90;;;;;;7288804;19;20656;-85
2023/10/07 11:58:02;;;;;;;7.85;3.25;;;32.10;99.80;;;;;;7284832;19;20181;-84
2023/10/07 12:00:31;;;;;;;11.07;3.78;;;32.20;99.90;;;;;;7286709;19;20189;-85
2023/10/07 12:02:57;;;;;;;10.13;3.65;;;31.80;98.30;;;;;;7287273;19;20188;-85
2023/10/07 12:05:27;;;;;;;10.52;3.92;;;31.60;99.90;;;;;;7287240;19;20185;-85
2023/10/07 12:08:01;;;;;;;13.18;3.95;;;31.40;99.90;;;;;;7286649;19;20185;-86
2023/10/07 12:10:33;;;;;;;13.90;4.18;;;31.20;99.90;;;;;;7286231;19;20196;-85
2023/10/07 12:13:03;;;;;;;11.00;4.07;;;31.40;99.80;;;;;;7285406;19;20197;-84
2023/10/07 12:15:34;;;;;;;14.40;4.25;;;31.40;99.90;;;;;;7285132;19;20208;-85
2023/10/07 12:18:06;;;;;;;9.48;3.20;;;31.00;99.30;;;;;;7285232;19;20193;-86
2023/10/07 12:20:35;;;;;;;9.40;3.50;;;31.10;99.90;;;;;;7286765;19;20570;-86
2023/10/07 12:23:02;;;;;;;8.82;3.50;;;30.80;99.90;;;;;;7273071;19;20196;-86
2023/10/07 12:25:30;;;;;;;11.10;3.97;;;30.70;99.90;;;;;;7285187;19;20193;-86
2023/10/07 12:27:57;;;;;;;8.45;3.55;;;30.90;99.90;;;;;;7269158;19;20197;-86
2023/10/07 12:30:23;;;;;;;8.73;3.60;;;30.90;99.90;;;;;;7285572;19;20193;-85
2023/10/07 12:32:50;;;;;;;8.43;3.75;;;30.90;99.90;;;;;;7286905;19;20188;-85
2023/10/07 12:35:32;;;;;;;10.23;3.75;;;30.70;99.90;;;;;;7309249;19;20677;-85
2023/10/07 12:38:06;;;;;;;9.75;3.75;;;30.70;99.90;;;;;;7284418;19;20197;-86
2023/10/07 12:40:38;;;;;;;8.88;3.70;;;31.00;99.90;;;;;;7271201;19;20193;-86
2023/10/07 12:43:06;;;;;;;10.15;3.42;;;31.40;99.70;;;;;;7284830;19;20193;-85
2023/10/07 12:45:32;;;;;;;10.18;3.60;;;31.00;99.90;;;;;;7285610;19;20217;-87
2023/10/07 12:48:03;;;;;;;13.18;3.40;;;31.20;99.60;;;;;;7283964;19;20185;-86
2023/10/07 12:50:30;;;;;;;14.20;3.45;;;30.90;99.90;;;;;;7283709;19;20212;-83
2023/10/07 12:52:57;;;;;;;7.85;3.03;;;30.60;99.90;;;;;;7284821;19;20701;-85
2023/10/07 12:55:32;;;;;;;10.20;3.63;;;30.40;99.90;;;;;;7282505;19;20272;-85
2023/10/07 12:58:15;;;;;;;9.10;3.63;;;29.70;99.90;;;;;;7293196;19;20531;-87
2023/10/07 13:00:42;;;;;;;8.65;3.60;;;29.10;99.90;;;;;;7275505;19;20193;-86
2023/10/07 13:03:08;;;;;;;9.55;3.80;;;28.80;99.90;;;;;;7293519;19;20178;-85
2023/10/07 13:05:45;;;;;;;13.23;3.70;;;28.20;99.90;;;;;;7379107;19;20196;-86
2023/10/07 13:08:18;;;;;;;9.82;3.22;;;27.70;99.90;;;;;;7409470;19;20145;-86
2023/10/07 13:11:02;;;;;;;9.25;3.50;;;27.10;99.90;;;;;;7294519;19;20205;-86
2023/10/07 13:13:54;;;;;;;10.48;3.30;;;26.70;99.90;;;;;;7273852;19;20184;-88
2023/10/07 13:16:26;;;;;;;8.65;3.40;;;26.30;99.90;;;;;;7274617;19;20188;-88
2023/10/07 13:19:05;;;;;;;9.23;3.28;;;26.10;99.90;;;;;;7295942;19;20264;-88
2023/10/07 13:21:39;;;;;;;8.30;3.38;;;26.10;99.90;;;;;;7292074;19;20573;-87
2023/10/07 13:24:11;;;;;;;8.80;3.58;;;26.10;99.90;;;;;;7359580;19;20192;-89
2023/10/07 13:27:04;;;;;;;8.98;3.65;;;25.90;99.90;;;;;;7380443;19;20158;-88
2023/10/07 13:29:36;;;;;;;11.20;3.72;;;25.60;99.90;;;;;;7290485;19;20192;-87
2023/10/07 13:32:16;;;;;;;9.85;3.33;;;25.60;99.90;;;;;;7290868;19;21584;-88
2023/10/07 13:34:46;;;;;;;8.80;3.42;;;25.70;99.90;;;;;;7292403;19;20188;-88
2023/10/07 13:37:15;;;;;;;9.63;3.63;;;25.60;99.90;;;;;;7292487;19;20184;-89
2023/10/07 13:39:55;;;;;;;9.57;3.50;;;25.70;99.90;;;;;;7275871;19;20228;-91
2023/10/07 13:43:09;;;;;;;9.25;3.38;;;25.50;99.90;;;;;;7388834;19;20848;-93
2023/10/07 13:46:08;;;;;;;9.48;3.42;;;25.60;99.90;;;;;;7408887;19;20134;-89
2023/10/07 13:48:38;;;;;;;8.70;3.25;;;25.50;99.90;;;;;;7404322;19;20154;-89
2023/10/07 13:57:02;;;;;;;9.15;3.55;;;25.10;99.90;;;;;;7292306;19;20713;-89
2023/10/07 13:59:39;;;;;;;10.70;3.55;;;25.00;99.90;;;;;;7292464;19;20199;-89
2023/10/07 14:02:21;;;;;;;11.25;3.55;;;24.80;99.90;;;;;;7272060;19;20684;-90
2023/10/07 14:04:48;;;;;;;11.63;3.83;;;24.80;99.90;;;;;;7313377;19;20189;-89
2023/10/07 14:07:18;;;;;;;7.90;3.43;;;24.80;99.90;;;;;;7268864;19;20197;-89
2023/10/07 14:09:59;;;;;;;11.65;4.03;;;24.90;99.90;;;;;;7188775;19;2004473;-89
2023/10/07 14:12:37;;;;;;;9.55;3.70;;;24.80;99.90;;;;;;7291710;19;20200;-89
2023/10/07 14:15:04;;;;;;;11.00;3.63;;;24.90;99.90;;;;;;7291075;19;20256;-89